createdAt,value
2016-03-29T00:00:43.911Z,0
2016-03-29T00:01:43.883Z,0
2016-03-29T00:02:43.870Z,0
2016-03-29T00:03:43.842Z,0
2016-03-29T00:04:43.814Z,0
2016-03-29T00:05:43.785Z,0
2016-03-29T00:06:43.756Z,0
2016-03-29T00:07:43.728Z,0
2016-03-29T00:08:43.699Z,0
2016-03-29T00:09:43.670Z,0
2016-03-29T00:10:43.657Z,0
2016-03-29T00:11:43.630Z,0
2016-03-29T00:12:43.600Z,0
2016-03-29T00:13:43.572Z,0
2016-03-29T00:14:43.544Z,0
2016-03-29T00:15:43.530Z,0
2016-03-29T00:16:43.501Z,0
2016-03-29T00:17:43.473Z,0
2016-03-29T00:18:43.444Z,0
2016-03-29T00:19:43.416Z,0
2016-03-29T00:20:43.387Z,0
2016-03-29T00:21:43.374Z,0
2016-03-29T00:22:43.330Z,0
2016-03-29T00:23:43.317Z,0
2016-03-29T00:24:43.290Z,0
2016-03-29T00:25:43.260Z,0
2016-03-29T00:26:43.232Z,0
2016-03-29T00:27:43.218Z,0
2016-03-29T00:28:43.190Z,0
2016-03-29T00:29:43.162Z,0
2016-03-29T00:30:43.133Z,0
2016-03-29T00:31:43.104Z,0
2016-03-29T00:32:43.075Z,0
2016-03-29T00:33:43.079Z,0
2016-03-29T00:34:43.019Z,0
2016-03-29T00:35:42.990Z,0
2016-03-29T00:36:42.978Z,0
2016-03-29T00:37:42.949Z,0
2016-03-29T00:38:42.920Z,0
2016-03-29T00:39:42.891Z,0
2016-03-29T00:40:43.145Z,0
2016-03-29T00:41:42.850Z,0
2016-03-29T00:42:42.822Z,0
2016-03-29T00:43:42.793Z,0
2016-03-29T00:44:42.780Z,0
2016-03-29T00:45:42.736Z,0
2016-03-29T00:46:42.723Z,0
2016-03-29T00:47:42.695Z,0
2016-03-29T00:48:42.666Z,0
2016-03-29T00:49:42.638Z,0
2016-03-29T00:50:42.624Z,0
2016-03-29T00:51:42.596Z,0
2016-03-29T00:52:42.552Z,0
2016-03-29T00:53:42.538Z,0
2016-03-29T00:54:42.510Z,0
2016-03-29T00:55:42.576Z,0
2016-03-29T00:56:42.454Z,0
2016-03-29T00:57:42.409Z,0
2016-03-29T00:58:42.396Z,0
2016-03-29T00:59:42.384Z,0
2016-03-29T01:00:42.339Z,0
2016-03-29T01:01:42.309Z,0
2016-03-29T01:02:42.282Z,0
2016-03-29T01:03:42.253Z,0
2016-03-29T01:04:42.240Z,0
2016-03-29T01:05:42.211Z,0
2016-03-29T01:06:42.198Z,0
2016-03-29T01:07:42.144Z,0
2016-03-29T01:08:42.131Z,0
2016-03-29T01:09:42.102Z,0
2016-03-29T01:10:42.105Z,0
2016-03-29T01:11:42.045Z,0
2016-03-29T01:12:42.016Z,0
2016-03-29T01:13:42.004Z,0
2016-03-29T01:14:41.975Z,0
2016-03-29T01:15:41.963Z,0
2016-03-29T01:16:41.918Z,0
2016-03-29T01:17:41.890Z,0
2016-03-29T01:18:41.861Z,0
2016-03-29T01:19:41.848Z,0
2016-03-29T01:20:41.804Z,0
2016-03-29T01:21:41.806Z,0
2016-03-29T01:22:41.763Z,0
2016-03-29T01:23:41.734Z,0
2016-03-29T01:24:41.705Z,0
2016-03-29T01:25:41.692Z,0
2016-03-29T01:26:41.664Z,0
2016-03-29T01:27:41.635Z,0
2016-03-29T01:28:41.606Z,0
2016-03-29T01:29:41.578Z,0
2016-03-29T01:30:41.550Z,0
2016-03-29T01:31:41.536Z,0
2016-03-29T01:32:41.492Z,0
2016-03-29T01:33:41.479Z,0
2016-03-29T01:34:41.451Z,0
2016-03-29T01:35:41.422Z,0
2016-03-29T01:36:41.393Z,0
2016-03-29T01:37:41.349Z,0
2016-03-29T01:38:41.336Z,0
2016-03-29T01:39:41.308Z,0
2016-03-29T01:40:41.279Z,0
2016-03-29T01:41:41.250Z,0
2016-03-29T01:42:41.222Z,0
2016-03-29T01:43:41.194Z,0
2016-03-29T01:44:41.165Z,0
2016-03-29T01:45:41.152Z,0
2016-03-29T01:46:41.108Z,0
2016-03-29T01:47:41.095Z,0
2016-03-29T01:48:41.066Z,0
2016-03-29T01:49:41.037Z,0
2016-03-29T01:50:41.025Z,0
2016-03-29T01:51:40.981Z,0
2016-03-29T01:52:40.952Z,0
2016-03-29T01:53:40.924Z,0
2016-03-29T01:54:40.895Z,0
2016-03-29T01:55:40.867Z,0
2016-03-29T01:56:40.853Z,0
2016-03-29T01:57:40.826Z,0
2016-03-29T01:58:40.796Z,0
2016-03-29T01:59:40.768Z,0
2016-03-29T02:00:40.739Z,0
2016-03-29T02:01:40.711Z,0
2016-03-29T02:02:40.682Z,0
2016-03-29T02:03:40.669Z,0
2016-03-29T02:04:40.641Z,0
2016-03-29T02:05:40.612Z,0
2016-03-29T02:06:40.584Z,0
2016-03-29T02:07:40.555Z,0
2016-03-29T02:08:40.527Z,0
2016-03-29T02:09:40.514Z,0
2016-03-29T02:10:40.470Z,0
2016-03-29T02:11:40.456Z,0
2016-03-29T02:12:40.412Z,0
2016-03-29T02:13:40.399Z,0
2016-03-29T02:14:40.371Z,0
2016-03-29T02:15:40.342Z,0
2016-03-29T02:16:40.314Z,0
2016-03-29T02:17:40.286Z,0
2016-03-29T02:18:40.257Z,0
2016-03-29T02:19:40.227Z,0
2016-03-29T02:20:40.215Z,0
2016-03-29T02:21:40.187Z,0
2016-03-29T02:22:40.142Z,0
2016-03-29T02:23:40.129Z,0
2016-03-29T02:24:40.100Z,0
2016-03-29T02:25:40.073Z,0
2016-03-29T02:26:40.028Z,0
2016-03-29T02:27:40.015Z,0
2016-03-29T02:28:39.987Z,0
2016-03-29T02:29:39.958Z,0
2016-03-29T02:30:39.929Z,0
2016-03-29T02:31:39.900Z,0
2016-03-29T02:32:39.872Z,0
2016-03-29T02:33:39.859Z,0
2016-03-29T02:34:39.675Z,0
2016-03-29T02:35:39.802Z,0
2016-03-29T02:36:39.758Z,0
2016-03-29T02:37:39.745Z,0
2016-03-29T02:38:39.716Z,0
2016-03-29T02:39:39.688Z,0
2016-03-29T02:40:39.659Z,0
2016-03-29T02:41:39.631Z,0
2016-03-29T02:42:39.602Z,0
2016-03-29T02:43:39.574Z,0
2016-03-29T02:44:39.545Z,0
2016-03-29T02:45:39.517Z,0
2016-03-29T02:46:39.488Z,0
2016-03-29T02:47:39.474Z,0
2016-03-29T02:48:39.447Z,0
2016-03-29T02:49:39.418Z,0
2016-03-29T02:50:39.390Z,0
2016-03-29T02:51:39.361Z,0
2016-03-29T02:52:39.349Z,0
2016-03-29T02:53:39.304Z,0
2016-03-29T02:54:39.290Z,0
2016-03-29T02:55:39.262Z,0
2016-03-29T02:56:39.234Z,0
2016-03-29T02:57:39.205Z,0
2016-03-29T02:58:39.176Z,0
2016-03-29T02:59:39.148Z,0
2016-03-29T03:00:39.135Z,0
2016-03-29T03:01:39.091Z,0
2016-03-29T03:02:39.078Z,0
2016-03-29T03:03:38.893Z,0
2016-03-29T03:04:39.006Z,0
2016-03-29T03:05:38.976Z,0
2016-03-29T03:06:38.964Z,0
2016-03-29T03:07:38.951Z,0
2016-03-29T03:08:38.907Z,0
2016-03-29T03:09:38.894Z,0
2016-03-29T03:10:38.849Z,0
2016-03-29T03:11:38.821Z,0
2016-03-29T03:12:38.808Z,0
2016-03-29T03:13:38.779Z,0
2016-03-29T03:14:38.750Z,0
2016-03-29T03:15:38.722Z,0
2016-03-29T03:16:38.694Z,0
2016-03-29T03:17:38.665Z,0
2016-03-29T03:18:38.668Z,0
2016-03-29T03:19:38.624Z,0
2016-03-29T03:20:38.595Z,0
2016-03-29T03:21:38.551Z,0
2016-03-29T03:22:38.521Z,0
2016-03-29T03:23:38.510Z,0
2016-03-29T03:24:38.527Z,0
2016-03-29T03:25:38.452Z,0
2016-03-29T03:26:38.424Z,0
2016-03-29T03:27:38.410Z,0
2016-03-29T03:28:38.382Z,0
2016-03-29T03:29:38.337Z,0
2016-03-29T03:30:38.309Z,0
2016-03-29T03:31:38.296Z,0
2016-03-29T03:32:38.268Z,0
2016-03-29T03:33:38.239Z,0
2016-03-29T03:34:38.211Z,0
2016-03-29T03:35:38.182Z,0
2016-03-29T03:36:38.169Z,0
2016-03-29T03:37:38.142Z,0
2016-03-29T03:38:38.112Z,0
2016-03-29T03:39:38.084Z,0
2016-03-29T03:40:38.055Z,0
2016-03-29T03:41:38.027Z,0
2016-03-29T03:42:37.998Z,0
2016-03-29T03:43:37.985Z,0
2016-03-29T03:44:37.956Z,0
2016-03-29T03:45:37.912Z,0
2016-03-29T03:46:37.900Z,0
2016-03-29T03:47:37.871Z,0
2016-03-29T03:48:37.842Z,0
2016-03-29T03:49:37.814Z,0
2016-03-29T03:50:37.785Z,0
2016-03-29T03:51:37.757Z,0
2016-03-29T03:52:37.727Z,0
2016-03-29T03:53:37.716Z,0
2016-03-29T03:54:37.687Z,0
2016-03-29T03:55:37.704Z,0
2016-03-29T03:56:37.629Z,0
2016-03-29T03:57:37.601Z,0
2016-03-29T03:58:37.572Z,0
2016-03-29T03:59:37.544Z,0
2016-03-29T04:00:37.515Z,0
2016-03-29T04:01:37.502Z,0
2016-03-29T04:02:37.473Z,0
2016-03-29T04:03:37.445Z,0
2016-03-29T04:04:37.417Z,0
2016-03-29T04:05:37.387Z,0
2016-03-29T04:06:37.375Z,0
2016-03-29T04:07:37.330Z,0
2016-03-29T04:08:37.303Z,0
2016-03-29T04:09:37.273Z,0
2016-03-29T04:10:37.261Z,0
2016-03-29T04:11:37.233Z,0
2016-03-29T04:12:37.203Z,0
2016-03-29T04:13:37.175Z,0
2016-03-29T04:14:37.147Z,0
2016-03-29T04:15:37.118Z,0
2016-03-29T04:16:37.105Z,0
2016-03-29T04:17:37.076Z,0
2016-03-29T04:18:37.048Z,0
2016-03-29T04:19:37.019Z,0
2016-03-29T04:20:36.991Z,0
2016-03-29T04:21:36.963Z,0
2016-03-29T04:22:36.949Z,0
2016-03-29T04:23:36.921Z,0
2016-03-29T04:24:36.892Z,0
2016-03-29T04:25:36.848Z,0
2016-03-29T04:26:36.835Z,0
2016-03-29T04:27:36.807Z,0
2016-03-29T04:28:36.779Z,0
2016-03-29T04:29:36.749Z,0
2016-03-29T04:30:36.721Z,0
2016-03-29T04:31:36.693Z,0
2016-03-29T04:32:36.664Z,0
2016-03-29T04:33:36.635Z,0
2016-03-29T04:34:36.623Z,0
2016-03-29T04:35:36.593Z,0
2016-03-29T04:36:36.565Z,0
2016-03-29T04:37:36.537Z,0
2016-03-29T04:38:36.539Z,0
2016-03-29T04:39:36.479Z,0
2016-03-29T04:40:36.467Z,0
2016-03-29T04:41:36.439Z,0
2016-03-29T04:42:36.409Z,0
2016-03-29T04:43:36.381Z,4
2016-03-29T04:44:36.352Z,0
2016-03-29T04:45:36.324Z,4
2016-03-29T04:46:36.311Z,4
2016-03-29T04:47:36.283Z,4
2016-03-29T04:48:36.316Z,8
2016-03-29T04:49:36.288Z,8
2016-03-29T04:50:36.275Z,8
2016-03-29T04:51:36.246Z,8
2016-03-29T04:52:36.218Z,8
2016-03-29T04:53:36.189Z,8
2016-03-29T04:54:36.224Z,12
2016-03-29T04:55:36.132Z,16
2016-03-29T04:56:36.104Z,24
2016-03-29T04:57:36.013Z,20
2016-03-29T04:58:35.985Z,24
2016-03-29T04:59:35.955Z,32
2016-03-29T05:00:35.927Z,48
2016-03-29T05:01:35.898Z,56
2016-03-29T05:02:35.870Z,72
2016-03-29T05:03:35.841Z,88
2016-03-29T05:04:35.828Z,72
2016-03-29T05:05:35.798Z,52
2016-03-29T05:06:35.771Z,56
2016-03-29T05:07:35.742Z,64
2016-03-29T05:08:35.714Z,68
2016-03-29T05:09:35.685Z,64
2016-03-29T05:10:35.657Z,60
2016-03-29T05:11:35.628Z,64
2016-03-29T05:12:35.599Z,84
2016-03-29T05:13:35.587Z,112
2016-03-29T05:14:35.558Z,116
2016-03-29T05:15:35.529Z,124
2016-03-29T05:16:35.500Z,156
2016-03-29T05:17:35.472Z,156
2016-03-29T05:18:35.444Z,176
2016-03-29T05:19:35.415Z,200
2016-03-29T05:20:35.403Z,296
2016-03-29T05:21:35.374Z,372
2016-03-29T05:22:35.345Z,432
2016-03-29T05:23:35.316Z,500
2016-03-29T05:24:35.288Z,560
2016-03-29T05:25:35.260Z,544
2016-03-29T05:26:35.230Z,520
2016-03-29T05:27:35.218Z,552
2016-03-29T05:28:35.174Z,560
2016-03-29T05:29:35.146Z,608
2016-03-29T05:30:35.133Z,648
2016-03-29T05:31:35.104Z,672
2016-03-29T05:32:35.076Z,716
2016-03-29T05:33:35.062Z,748
2016-03-29T05:34:35.034Z,792
2016-03-29T05:35:35.004Z,728
2016-03-29T05:36:34.962Z,620
2016-03-29T05:37:34.948Z,596
2016-03-29T05:38:34.919Z,620
2016-03-29T05:39:34.875Z,612
2016-03-29T05:40:34.862Z,852
2016-03-29T05:41:34.833Z,1052
2016-03-29T05:42:34.805Z,1136
2016-03-29T05:43:34.776Z,1276
2016-03-29T05:44:34.747Z,1192
2016-03-29T05:45:34.719Z,1132
2016-03-29T05:46:34.691Z,1200
2016-03-29T05:47:34.662Z,1224
2016-03-29T05:48:34.633Z,1308
2016-03-29T05:49:34.621Z,1368
2016-03-29T05:50:34.591Z,984
2016-03-29T05:51:34.564Z,716
2016-03-29T05:52:34.535Z,556
2016-03-29T05:53:34.507Z,532
2016-03-29T05:54:34.478Z,588
2016-03-29T05:55:34.466Z,684
2016-03-29T05:56:34.468Z,732
2016-03-29T05:57:34.548Z,780
2016-03-29T05:58:34.379Z,792
2016-03-29T05:59:34.351Z,680
2016-03-29T06:00:34.337Z,640
2016-03-29T06:01:34.309Z,744
2016-03-29T06:02:34.281Z,920
2016-03-29T06:03:34.237Z,1052
2016-03-29T06:04:34.224Z,1208
2016-03-29T06:05:34.195Z,1148
2016-03-29T06:06:34.167Z,1148
2016-03-29T06:07:34.138Z,1228
2016-03-29T06:08:34.109Z,1344
2016-03-29T06:09:34.096Z,1280
2016-03-29T06:10:34.055Z,1116
2016-03-29T06:11:34.028Z,1292
2016-03-29T06:12:33.999Z,1508
2016-03-29T06:13:33.971Z,1436
2016-03-29T06:14:33.958Z,1748
2016-03-29T06:15:33.929Z,2632
2016-03-29T06:16:33.901Z,2660
2016-03-29T06:17:33.871Z,2096
2016-03-29T06:18:33.860Z,1588
2016-03-29T06:19:33.830Z,1396
2016-03-29T06:20:33.802Z,1428
2016-03-29T06:21:33.773Z,1364
2016-03-29T06:22:33.745Z,1796
2016-03-29T06:23:33.715Z,1652
2016-03-29T06:24:33.687Z,1336
2016-03-29T06:25:33.659Z,1552
2016-03-29T06:26:33.756Z,1668
2016-03-29T06:27:33.617Z,1860
2016-03-29T06:28:33.589Z,1912
2016-03-29T06:29:33.575Z,1524
2016-03-29T06:30:33.532Z,1580
2016-03-29T06:31:33.519Z,1540
2016-03-29T06:32:33.475Z,1480
2016-03-29T06:33:33.461Z,1408
2016-03-29T06:34:33.417Z,1348
2016-03-29T06:35:33.405Z,1684
2016-03-29T06:36:33.391Z,2128
2016-03-29T06:37:33.348Z,2012
2016-03-29T06:38:33.335Z,1864
2016-03-29T06:39:33.291Z,2060
2016-03-29T06:40:33.277Z,1760
2016-03-29T06:41:33.249Z,1420
2016-03-29T06:42:33.205Z,1952
2016-03-29T06:43:33.191Z,2132
2016-03-29T06:44:33.163Z,2144
2016-03-29T06:45:33.134Z,3268
2016-03-29T06:46:33.107Z,3904
2016-03-29T06:47:33.077Z,4324
2016-03-29T06:48:33.049Z,5900
2016-03-29T06:49:33.021Z,5216
2016-03-29T06:50:32.992Z,3624
2016-03-29T06:51:32.979Z,2976
2016-03-29T06:52:32.951Z,3892
2016-03-29T06:53:32.922Z,4064
2016-03-29T06:54:32.884Z,4604
2016-03-29T06:55:32.838Z,4668
2016-03-29T06:56:32.825Z,3932
2016-03-29T06:57:32.763Z,4132
2016-03-29T06:58:32.718Z,4064
2016-03-29T06:59:32.677Z,3580
2016-03-29T07:00:32.641Z,3108
2016-03-29T07:01:32.732Z,4292
2016-03-29T07:02:32.619Z,4800
2016-03-29T07:03:32.553Z,3888
2016-03-29T07:04:32.536Z,4408
2016-03-29T07:05:32.490Z,5064
2016-03-29T07:06:32.302Z,5192
2016-03-29T07:07:32.444Z,5628
2016-03-29T07:08:32.414Z,5280
2016-03-29T07:09:32.243Z,4696
2016-03-29T07:10:32.370Z,5412
2016-03-29T07:11:32.324Z,6004
2016-03-29T07:12:32.341Z,6556
2016-03-29T07:13:32.266Z,7644
2016-03-29T07:14:32.236Z,7412
2016-03-29T07:15:32.207Z,6352
2016-03-29T07:16:32.179Z,7392
2016-03-29T07:17:32.165Z,9408
2016-03-29T07:18:32.137Z,8592
2016-03-29T07:19:32.107Z,6416
2016-03-29T07:20:32.095Z,6672
2016-03-29T07:21:32.067Z,5908
2016-03-29T07:22:32.053Z,5468
2016-03-29T07:23:32.008Z,4388
2016-03-29T07:24:31.996Z,4288
2016-03-29T07:25:31.968Z,4136
2016-03-29T07:26:31.939Z,4600
2016-03-29T07:27:31.911Z,4404
2016-03-29T07:28:31.881Z,3820
2016-03-29T07:29:31.869Z,4116
2016-03-29T07:30:31.669Z,6060
2016-03-29T07:31:31.796Z,7508
2016-03-29T07:32:31.767Z,6188
2016-03-29T07:33:31.036Z,6412
2016-03-29T07:34:31.741Z,7060
2016-03-29T07:35:31.854Z,8408
2016-03-29T07:36:31.685Z,8604
2016-03-29T07:37:31.672Z,9212
2016-03-29T07:38:31.644Z,9648
2016-03-29T07:39:31.615Z,9448
2016-03-29T07:40:31.571Z,8672
2016-03-29T07:41:31.558Z,9804
2016-03-29T07:42:31.529Z,11860
2016-03-29T07:43:31.501Z,11300
2016-03-29T07:44:31.471Z,11716
2016-03-29T07:45:31.459Z,13428
2016-03-29T07:46:31.509Z,13660
2016-03-29T07:47:31.402Z,13616
2016-03-29T07:48:31.373Z,14560
2016-03-29T07:49:31.377Z,17068
2016-03-29T07:50:31.316Z,15164
2016-03-29T07:51:31.301Z,12148
2016-03-29T07:52:31.273Z,11544
2016-03-29T07:53:31.243Z,12192
2016-03-29T07:54:31.216Z,11356
2016-03-29T07:55:31.202Z,9648
2016-03-29T07:56:31.017Z,8952
2016-03-29T07:57:31.146Z,9832
2016-03-29T07:58:31.132Z,11700
2016-03-29T07:59:31.120Z,11000
2016-03-29T08:00:31.091Z,9524
2016-03-29T08:01:31.203Z,10000
2016-03-29T08:02:31.315Z,10956
2016-03-29T08:03:31.037Z,12628
2016-03-29T08:04:30.976Z,12676
2016-03-29T08:05:30.995Z,13696
2016-03-29T08:06:30.951Z,15264
2016-03-29T08:07:30.923Z,12012
2016-03-29T08:08:30.878Z,11312
2016-03-29T08:09:30.865Z,10944
2016-03-29T08:10:30.853Z,10112
2016-03-29T08:11:30.824Z,12504
2016-03-29T08:12:30.780Z,10312
2016-03-29T08:13:30.750Z,8864
2016-03-29T08:14:30.738Z,9364
2016-03-29T08:15:30.725Z,9872
2016-03-29T08:16:30.681Z,9508
2016-03-29T08:17:30.669Z,7828
2016-03-29T08:18:30.639Z,7208
2016-03-29T08:19:30.627Z,6948
2016-03-29T08:20:30.613Z,6112
2016-03-29T08:21:30.569Z,7596
2016-03-29T08:22:30.541Z,8220
2016-03-29T08:23:30.513Z,8480
2016-03-29T08:24:30.500Z,6984
2016-03-29T08:25:30.471Z,7032
2016-03-29T08:26:30.443Z,7400
2016-03-29T08:27:30.429Z,6884
2016-03-29T08:28:30.401Z,8592
2016-03-29T08:29:30.373Z,7520
2016-03-29T08:30:30.344Z,6456
2016-03-29T08:31:30.331Z,7016
2016-03-29T08:32:30.302Z,8592
2016-03-29T08:33:30.258Z,9912
2016-03-29T08:34:30.245Z,10496
2016-03-29T08:35:30.217Z,11924
2016-03-29T08:36:30.188Z,10980
2016-03-29T08:37:30.160Z,10036
2016-03-29T08:38:30.131Z,9052
2016-03-29T08:39:30.118Z,8724
2016-03-29T08:40:30.105Z,8828
2016-03-29T08:41:30.545Z,7752
2016-03-29T08:42:30.048Z,7692
2016-03-29T08:43:30.019Z,8168
2016-03-29T08:44:29.991Z,9324
2016-03-29T08:45:30.071Z,8856
2016-03-29T08:46:29.965Z,9440
2016-03-29T08:47:29.921Z,11152
2016-03-29T08:48:29.892Z,12304
2016-03-29T08:49:29.880Z,13804
2016-03-29T08:50:29.866Z,13560
2016-03-29T08:51:29.822Z,13596
2016-03-29T08:52:29.809Z,14124
2016-03-29T08:53:29.766Z,13964
2016-03-29T08:54:29.736Z,15380
2016-03-29T08:55:29.708Z,16924
2016-03-29T08:56:29.696Z,19584
2016-03-29T08:57:29.682Z,23200
2016-03-29T08:58:29.654Z,23072
2016-03-29T08:59:29.625Z,20736
2016-03-29T09:00:29.596Z,17952
2016-03-29T09:01:29.568Z,16540
2016-03-29T09:02:29.539Z,20928
2016-03-29T09:03:29.510Z,23712
2016-03-29T09:04:29.498Z,21920
2016-03-29T09:05:29.485Z,20256
2016-03-29T09:06:29.458Z,20960
2016-03-29T09:07:29.429Z,20896
2016-03-29T09:08:29.400Z,23808
2016-03-29T09:09:29.371Z,23424
2016-03-29T09:10:29.359Z,21344
2016-03-29T09:11:29.627Z,21408
2016-03-29T09:12:29.145Z,23424
2016-03-29T09:13:29.320Z,24864
2016-03-29T09:14:29.275Z,25600
2016-03-29T09:15:29.231Z,25312
2016-03-29T09:16:29.218Z,24224
2016-03-29T09:17:29.206Z,20896
2016-03-29T09:18:30.865Z,19744
2016-03-29T09:19:29.226Z,21344
2016-03-29T09:20:29.136Z,26144
2016-03-29T09:21:29.388Z,31584
2016-03-29T09:22:29.095Z,33760
2016-03-29T09:23:29.081Z,35072
2016-03-29T09:24:29.084Z,31104
2016-03-29T09:25:29.071Z,27040
2016-03-29T09:26:29.011Z,20608
2016-03-29T09:27:28.998Z,19200
2016-03-29T09:28:28.953Z,20256
2016-03-29T09:29:28.941Z,21152
2016-03-29T09:30:28.912Z,19680
2016-03-29T09:31:28.930Z,20832
2016-03-29T09:32:28.855Z,24256
2016-03-29T09:33:28.858Z,27648
2016-03-29T09:34:28.814Z,29568
2016-03-29T09:35:28.802Z,29696
2016-03-29T09:36:28.772Z,27040
2016-03-29T09:37:28.760Z,22752
2016-03-29T09:38:28.730Z,19104
2016-03-29T09:39:28.718Z,19072
2016-03-29T09:40:28.690Z,18528
2016-03-29T09:41:28.676Z,16924
2016-03-29T09:42:28.648Z,16544
2016-03-29T09:43:28.634Z,15288
2016-03-29T09:44:28.621Z,15716
2016-03-29T09:45:28.593Z,16208
2016-03-29T09:46:28.585Z,16896
2016-03-29T09:47:28.542Z,18496
2016-03-29T09:48:28.528Z,17952
2016-03-29T09:49:28.531Z,16260
2016-03-29T09:50:28.486Z,15412
2016-03-29T09:51:28.473Z,16900
2016-03-29T09:52:28.445Z,16172
2016-03-29T09:53:28.416Z,18144
2016-03-29T09:54:28.389Z,19008
2016-03-29T09:55:28.375Z,18624
2016-03-29T09:56:28.347Z,16704
2016-03-29T09:57:28.334Z,14888
2016-03-29T09:58:28.305Z,14664
2016-03-29T09:59:28.292Z,14196
2016-03-29T10:00:28.263Z,13372
2016-03-29T10:01:28.250Z,13244
2016-03-29T10:02:28.221Z,10280
2016-03-29T10:03:28.193Z,8288
2016-03-29T10:04:28.180Z,9392
2016-03-29T10:05:28.151Z,9720
2016-03-29T10:06:28.139Z,12488
2016-03-29T10:07:28.110Z,12536
2016-03-29T10:08:28.082Z,15472
2016-03-29T10:09:28.069Z,18080
2016-03-29T10:10:28.056Z,18336
2016-03-29T10:11:28.043Z,17856
2016-03-29T10:12:28.014Z,18368
2016-03-29T10:13:27.971Z,16844
2016-03-29T10:14:27.942Z,16396
2016-03-29T10:15:27.929Z,14500
2016-03-29T10:16:27.916Z,11740
2016-03-29T10:17:27.887Z,12196
2016-03-29T10:18:27.890Z,12524
2016-03-29T10:19:27.846Z,10644
2016-03-29T10:20:27.817Z,11072
2016-03-29T10:21:27.804Z,10804
2016-03-29T10:22:27.806Z,9388
2016-03-29T10:23:28.294Z,9992
2016-03-29T10:24:28.266Z,12272
2016-03-29T10:25:27.706Z,17760
2016-03-29T10:26:27.537Z,20320
2016-03-29T10:27:27.695Z,16076
2016-03-29T10:28:27.636Z,13004
2016-03-29T10:29:27.622Z,10552
2016-03-29T10:30:27.594Z,11200
2016-03-29T10:31:27.596Z,17216
2016-03-29T10:32:27.662Z,26336
2016-03-29T10:33:27.524Z,29536
2016-03-29T10:34:27.495Z,27328
2016-03-29T10:35:27.482Z,24000
2016-03-29T10:36:27.454Z,22400
2016-03-29T10:37:27.471Z,28448
2016-03-29T10:38:27.428Z,34720
2016-03-29T10:39:27.415Z,32320
2016-03-29T10:40:27.387Z,28512
2016-03-29T10:41:27.374Z,24672
2016-03-29T10:42:27.329Z,26912
2016-03-29T10:43:27.379Z,30944
2016-03-29T10:44:27.287Z,32160
2016-03-29T10:45:27.697Z,29760
2016-03-29T10:46:27.246Z,28032
2016-03-29T10:47:27.248Z,28480
2016-03-29T10:48:27.205Z,25792
2016-03-29T10:49:27.192Z,20864
2016-03-29T10:50:27.163Z,19872
2016-03-29T10:51:27.150Z,25792
2016-03-29T10:52:27.153Z,27840
2016-03-29T10:53:27.109Z,27168
2016-03-29T10:54:27.080Z,28384
2016-03-29T10:55:27.068Z,25152
2016-03-29T10:56:27.039Z,25440
2016-03-29T10:57:27.026Z,29440
2016-03-29T10:58:27.013Z,30592
2016-03-29T10:59:26.986Z,28096
2016-03-29T11:00:26.956Z,25216
2016-03-29T11:01:26.944Z,21664
2016-03-29T11:02:26.946Z,18496
2016-03-29T11:03:26.902Z,20160
2016-03-29T11:04:26.874Z,20192
2016-03-29T11:05:26.860Z,18912
2016-03-29T11:06:26.941Z,18080
2016-03-29T11:07:26.818Z,19232
2016-03-29T11:08:26.821Z,23680
2016-03-29T11:09:26.793Z,25920
2016-03-29T11:10:26.765Z,24768
2016-03-29T11:11:26.735Z,21280
2016-03-29T11:12:26.723Z,20672
2016-03-29T11:13:26.710Z,25472
2016-03-29T11:14:26.681Z,26080
2016-03-29T11:15:26.668Z,21952
2016-03-29T11:16:26.639Z,17368
2016-03-29T11:17:26.611Z,14628
2016-03-29T11:18:26.614Z,13424
2016-03-29T11:19:26.601Z,11796
2016-03-29T11:20:26.557Z,11720
2016-03-29T11:21:26.544Z,13596
2016-03-29T11:22:26.547Z,17340
2016-03-29T11:23:26.518Z,21856
2016-03-29T11:24:26.489Z,24576
2016-03-29T11:25:26.461Z,29152
2016-03-29T11:26:26.448Z,32480
2016-03-29T11:27:26.420Z,29664
2016-03-29T11:28:26.860Z,24448
2016-03-29T11:29:26.722Z,25696
2016-03-29T11:30:26.365Z,23360
2016-03-29T11:31:26.336Z,18036
2016-03-29T11:32:26.324Z,17060
2016-03-29T11:33:26.295Z,16452
2016-03-29T11:34:26.282Z,20672
2016-03-29T11:35:26.269Z,25440
2016-03-29T11:36:26.287Z,29312
2016-03-29T11:37:26.228Z,28000
2016-03-29T11:38:26.215Z,23296
2016-03-29T11:39:26.186Z,23872
2016-03-29T11:40:26.174Z,27392
2016-03-29T11:41:26.144Z,27968
2016-03-29T11:42:26.382Z,23840
2016-03-29T11:43:26.103Z,24096
2016-03-29T11:44:26.074Z,23872
2016-03-29T11:45:26.061Z,20288
2016-03-29T11:46:26.032Z,19264
2016-03-29T11:47:26.020Z,16912
2016-03-29T11:48:26.006Z,14852
2016-03-29T11:49:25.978Z,13436
2016-03-29T11:50:25.965Z,16400
2016-03-29T11:51:25.953Z,20704
2016-03-29T11:52:25.923Z,23680
2016-03-29T11:53:25.911Z,25120
2016-03-29T11:54:25.898Z,27072
2016-03-29T11:55:25.870Z,29792
2016-03-29T11:56:25.857Z,32832
2016-03-29T11:57:26.031Z,31680
2016-03-29T11:58:25.815Z,29440
2016-03-29T11:59:25.786Z,27744
2016-03-29T12:00:25.774Z,27520
2016-03-29T12:01:25.745Z,25760
2016-03-29T12:02:25.733Z,28032
2016-03-29T12:03:25.719Z,31680
2016-03-29T12:04:25.675Z,31776
2016-03-29T12:05:25.677Z,29728
2016-03-29T12:06:25.649Z,27968
2016-03-29T12:07:25.633Z,24128
2016-03-29T12:08:25.621Z,21824
2016-03-29T12:09:25.592Z,20416
2016-03-29T12:10:25.563Z,18112
2016-03-29T12:11:25.551Z,17688
2016-03-29T12:12:25.428Z,17940
2016-03-29T12:13:25.509Z,17536
2016-03-29T12:14:25.573Z,18944
2016-03-29T12:15:25.467Z,18336
2016-03-29T12:16:25.455Z,18208
2016-03-29T12:17:25.442Z,18720
2016-03-29T12:18:25.428Z,19808
2016-03-29T12:19:25.400Z,22048
2016-03-29T12:20:25.386Z,24384
2016-03-29T12:21:25.358Z,23936
2016-03-29T12:22:25.345Z,23840
2016-03-29T12:23:25.333Z,24512
2016-03-29T12:24:25.304Z,25984
2016-03-29T12:25:25.292Z,27072
2016-03-29T12:26:25.278Z,27520
2016-03-29T12:27:25.312Z,24288
2016-03-29T12:28:25.237Z,23296
2016-03-29T12:29:26.036Z,25536
2016-03-29T12:30:25.195Z,27392
2016-03-29T12:31:25.183Z,26848
2016-03-29T12:32:25.169Z,26080
2016-03-29T12:33:25.141Z,24768
2016-03-29T12:34:25.113Z,24736
2016-03-29T12:35:25.115Z,26048
2016-03-29T12:36:25.086Z,26912
2016-03-29T12:37:25.057Z,29664
2016-03-29T12:38:25.045Z,29216
2016-03-29T12:39:25.173Z,28288
2016-03-29T12:40:25.018Z,26464
2016-03-29T12:41:24.849Z,22496
2016-03-29T12:42:24.993Z,20288
2016-03-29T12:43:24.965Z,23744
2016-03-29T12:44:24.937Z,29056
2016-03-29T12:45:24.924Z,29952
2016-03-29T12:46:24.910Z,28192
2016-03-29T12:47:24.882Z,28704
2016-03-29T12:48:24.869Z,29920
2016-03-29T12:49:24.856Z,29856
2016-03-29T12:50:24.828Z,29088
2016-03-29T12:51:24.815Z,28992
2016-03-29T12:52:24.801Z,27392
2016-03-29T12:53:24.789Z,26336
2016-03-29T12:54:24.759Z,25920
2016-03-29T12:55:24.731Z,28352
2016-03-29T12:56:24.734Z,28960
2016-03-29T12:57:24.705Z,23456
2016-03-29T12:58:24.692Z,27264
2016-03-29T12:59:24.680Z,25600
2016-03-29T13:00:24.650Z,21376
2016-03-29T13:01:24.638Z,20096
2016-03-29T13:02:24.609Z,18016
2016-03-29T13:03:24.596Z,15308
2016-03-29T13:04:24.583Z,12708
2016-03-29T13:05:24.555Z,10852
2016-03-29T13:06:24.541Z,12788
2016-03-29T13:07:24.529Z,17344
2016-03-29T13:08:24.501Z,17952
2016-03-29T13:09:24.504Z,15780
2016-03-29T13:10:24.475Z,16636
2016-03-29T13:11:24.462Z,20160
2016-03-29T13:12:24.433Z,25504
2016-03-29T13:13:24.421Z,30752
2016-03-29T13:14:24.392Z,29280
2016-03-29T13:15:24.379Z,25760
2016-03-29T13:16:24.366Z,22240
2016-03-29T13:17:24.181Z,21312
2016-03-29T13:18:24.324Z,21440
2016-03-29T13:19:24.312Z,20832
2016-03-29T13:20:24.283Z,22048
2016-03-29T13:21:24.270Z,23808
2016-03-29T13:22:24.256Z,23168
2016-03-29T13:23:24.228Z,20544
2016-03-29T13:24:24.231Z,21056
2016-03-29T13:25:24.203Z,24608
2016-03-29T13:26:24.174Z,24544
2016-03-29T13:27:24.177Z,23232
2016-03-29T13:28:24.147Z,23680
2016-03-29T13:29:24.119Z,25088
2016-03-29T13:30:24.091Z,24000
2016-03-29T13:31:24.094Z,20672
2016-03-29T13:32:24.080Z,20000
2016-03-29T13:33:24.052Z,21728
2016-03-29T13:34:24.024Z,19648
2016-03-29T13:35:24.010Z,16928
2016-03-29T13:36:23.997Z,14924
2016-03-29T13:37:23.985Z,13360
2016-03-29T13:38:23.956Z,13140
2016-03-29T13:39:23.943Z,15880